sensor_id;sensor_type;location;lat;lon;timestamp;temperature;humidity
10231;DHT22;5159;49.432;8.680;2022-07-29T00:01:52;23.20;35.80
10231;DHT22;5159;49.432;8.680;2022-07-29T00:04:19;23.10;36.10
10231;DHT22;5159;49.432;8.680;2022-07-29T00:06:46;23.00;36.60
10231;DHT22;5159;49.432;8.680;2022-07-29T00:09:12;23.00;37.70
10231;DHT22;5159;49.432;8.680;2022-07-29T00:11:40;23.00;38.10
10231;DHT22;5159;49.432;8.680;2022-07-29T00:14:07;22.90;38.30
10231;DHT22;5159;49.432;8.680;2022-07-29T00:16:35;22.90;38.70
10231;DHT22;5159;49.432;8.680;2022-07-29T00:19:03;22.90;39.30
10231;DHT22;5159;49.432;8.680;2022-07-29T00:21:30;22.80;40.10
10231;DHT22;5159;49.432;8.680;2022-07-29T00:23:57;22.80;40.90
10231;DHT22;5159;49.432;8.680;2022-07-29T00:26:24;22.70;41.70
10231;DHT22;5159;49.432;8.680;2022-07-29T00:28:53;22.70;42.90
10231;DHT22;5159;49.432;8.680;2022-07-29T00:31:20;22.70;43.60
10231;DHT22;5159;49.432;8.680;2022-07-29T00:33:48;22.60;44.30
10231;DHT22;5159;49.432;8.680;2022-07-29T00:36:15;22.60;45.10
10231;DHT22;5159;49.432;8.680;2022-07-29T00:38:41;22.60;45.70
10231;DHT22;5159;49.432;8.680;2022-07-29T00:41:10;22.50;46.70
10231;DHT22;5159;49.432;8.680;2022-07-29T00:43:37;22.50;47.30
10231;DHT22;5159;49.432;8.680;2022-07-29T00:46:04;22.50;48.10
10231;DHT22;5159;49.432;8.680;2022-07-29T00:48:31;22.50;48.60
10231;DHT22;5159;49.432;8.680;2022-07-29T00:51:02;22.50;48.90
10231;DHT22;5159;49.432;8.680;2022-07-29T00:53:30;22.50;49.70
10231;DHT22;5159;49.432;8.680;2022-07-29T00:55:57;22.60;50.50
10231;DHT22;5159;49.432;8.680;2022-07-29T00:58:25;22.60;51.20
10231;DHT22;5159;49.432;8.680;2022-07-29T01:00:52;22.60;51.50
10231;DHT22;5159;49.432;8.680;2022-07-29T01:03:19;22.60;51.90
10231;DHT22;5159;49.432;8.680;2022-07-29T01:05:46;22.70;52.50
10231;DHT22;5159;49.432;8.680;2022-07-29T01:08:16;22.70;52.60
10231;DHT22;5159;49.432;8.680;2022-07-29T01:10:44;22.60;53.00
10231;DHT22;5159;49.432;8.680;2022-07-29T01:13:14;22.70;53.50
10231;DHT22;5159;49.432;8.680;2022-07-29T01:15:44;22.70;53.80
10231;DHT22;5159;49.432;8.680;2022-07-29T01:18:16;22.60;54.10
10231;DHT22;5159;49.432;8.680;2022-07-29T01:21:18;22.60;54.20
10231;DHT22;5159;49.432;8.680;2022-07-29T01:24:14;22.50;54.30
10231;DHT22;5159;49.432;8.680;2022-07-29T01:26:49;22.50;54.80
10231;DHT22;5159;49.432;8.680;2022-07-29T01:29:25;22.40;55.20
10231;DHT22;5159;49.432;8.680;2022-07-29T01:31:56;22.30;56.00
10231;DHT22;5159;49.432;8.680;2022-07-29T01:34:29;22.30;56.10
10231;DHT22;5159;49.432;8.680;2022-07-29T01:37:03;22.30;56.80
10231;DHT22;5159;49.432;8.680;2022-07-29T01:39:32;22.30;57.50
10231;DHT22;5159;49.432;8.680;2022-07-29T01:42:08;22.20;58.10
10231;DHT22;5159;49.432;8.680;2022-07-29T01:44:44;22.20;58.60
10231;DHT22;5159;49.432;8.680;2022-07-29T01:47:15;22.20;59.20
10231;DHT22;5159;49.432;8.680;2022-07-29T01:49:48;22.10;59.50
10231;DHT22;5159;49.432;8.680;2022-07-29T01:52:21;22.10;59.80
10231;DHT22;5159;49.432;8.680;2022-07-29T01:54:53;22.10;60.30
10231;DHT22;5159;49.432;8.680;2022-07-29T01:57:26;22.00;61.00
10231;DHT22;5159;49.432;8.680;2022-07-29T01:59:56;22.00;61.70
10231;DHT22;5159;49.432;8.680;2022-07-29T02:02:24;22.00;62.40
10231;DHT22;5159;49.432;8.680;2022-07-29T02:04:53;22.00;63.10
10231;DHT22;5159;49.432;8.680;2022-07-29T02:07:21;22.00;63.90
10231;DHT22;5159;49.432;8.680;2022-07-29T02:09:51;22.00;64.50
10231;DHT22;5159;49.432;8.680;2022-07-29T02:12:19;21.90;64.70
10231;DHT22;5159;49.432;8.680;2022-07-29T02:14:50;22.00;65.30
10231;DHT22;5159;49.432;8.680;2022-07-29T02:17:23;21.90;65.70
10231;DHT22;5159;49.432;8.680;2022-07-29T02:19:52;22.00;66.10
10231;DHT22;5159;49.432;8.680;2022-07-29T02:22:21;21.90;66.50
10231;DHT22;5159;49.432;8.680;2022-07-29T02:24:50;21.90;67.20
10231;DHT22;5159;49.432;8.680;2022-07-29T02:27:19;21.90;67.90
10231;DHT22;5159;49.432;8.680;2022-07-29T02:29:48;21.90;68.40
10231;DHT22;5159;49.432;8.680;2022-07-29T02:32:16;22.00;68.90
10231;DHT22;5159;49.432;8.680;2022-07-29T02:34:46;21.90;69.50
10231;DHT22;5159;49.432;8.680;2022-07-29T02:37:14;21.90;70.20
10231;DHT22;5159;49.432;8.680;2022-07-29T02:39:44;21.90;70.40
10231;DHT22;5159;49.432;8.680;2022-07-29T02:42:13;21.80;71.30
10231;DHT22;5159;49.432;8.680;2022-07-29T02:44:41;21.80;71.60
10231;DHT22;5159;49.432;8.680;2022-07-29T02:47:13;21.80;72.00
10231;DHT22;5159;49.432;8.680;2022-07-29T02:49:46;21.80;72.80
10231;DHT22;5159;49.432;8.680;2022-07-29T02:52:21;21.80;73.60
10231;DHT22;5159;49.432;8.680;2022-07-29T02:54:54;21.70;73.70
10231;DHT22;5159;49.432;8.680;2022-07-29T02:57:29;21.70;74.40
10231;DHT22;5159;49.432;8.680;2022-07-29T02:59:59;21.70;75.10
10231;DHT22;5159;49.432;8.680;2022-07-29T03:02:33;21.60;75.60
10231;DHT22;5159;49.432;8.680;2022-07-29T03:05:03;21.60;76.40
10231;DHT22;5159;49.432;8.680;2022-07-29T03:07:31;21.60;77.40
10231;DHT22;5159;49.432;8.680;2022-07-29T03:09:59;21.60;78.20
10231;DHT22;5159;49.432;8.680;2022-07-29T03:12:28;21.60;78.60
10231;DHT22;5159;49.432;8.680;2022-07-29T03:14:56;21.60;78.80
10231;DHT22;5159;49.432;8.680;2022-07-29T03:17:24;21.70;79.50
10231;DHT22;5159;49.432;8.680;2022-07-29T03:19:52;21.70;79.70
10231;DHT22;5159;49.432;8.680;2022-07-29T03:22:20;21.70;80.20
10231;DHT22;5159;49.432;8.680;2022-07-29T03:24:47;21.70;80.40
10231;DHT22;5159;49.432;8.680;2022-07-29T03:27:14;21.80;80.40
10231;DHT22;5159;49.432;8.680;2022-07-29T03:29:41;21.70;80.50
10231;DHT22;5159;49.432;8.680;2022-07-29T03:32:08;21.70;80.80
10231;DHT22;5159;49.432;8.680;2022-07-29T03:34:36;21.70;81.40
10231;DHT22;5159;49.432;8.680;2022-07-29T03:37:04;21.70;81.60
10231;DHT22;5159;49.432;8.680;2022-07-29T03:39:36;21.60;81.80
10231;DHT22;5159;49.432;8.680;2022-07-29T03:42:06;21.60;82.60
10231;DHT22;5159;49.432;8.680;2022-07-29T03:44:35;21.60;83.40
10231;DHT22;5159;49.432;8.680;2022-07-29T03:47:05;21.50;83.20
10231;DHT22;5159;49.432;8.680;2022-07-29T03:49:35;21.50;83.30
10231;DHT22;5159;49.432;8.680;2022-07-29T03:52:03;21.40;83.40
10231;DHT22;5159;49.432;8.680;2022-07-29T03:54:33;21.40;83.50
10231;DHT22;5159;49.432;8.680;2022-07-29T03:57:01;21.40;83.70
10231;DHT22;5159;49.432;8.680;2022-07-29T03:59:30;21.40;84.60
10231;DHT22;5159;49.432;8.680;2022-07-29T04:02:00;21.30;84.90
10231;DHT22;5159;49.432;8.680;2022-07-29T04:04:27;21.30;85.10
10231;DHT22;5159;49.432;8.680;2022-07-29T04:06:54;21.30;85.50
10231;DHT22;5159;49.432;8.680;2022-07-29T04:09:21;21.30;85.40
10231;DHT22;5159;49.432;8.680;2022-07-29T04:11:50;21.30;85.40
10231;DHT22;5159;49.432;8.680;2022-07-29T04:14:17;21.20;85.70
10231;DHT22;5159;49.432;8.680;2022-07-29T04:16:44;21.30;85.60
10231;DHT22;5159;49.432;8.680;2022-07-29T04:19:11;21.20;85.40
10231;DHT22;5159;49.432;8.680;2022-07-29T04:21:38;21.20;85.60
10231;DHT22;5159;49.432;8.680;2022-07-29T04:24:05;21.20;85.70
10231;DHT22;5159;49.432;8.680;2022-07-29T04:26:33;21.20;86.10
10231;DHT22;5159;49.432;8.680;2022-07-29T04:29:01;21.20;86.20
10231;DHT22;5159;49.432;8.680;2022-07-29T04:31:28;21.20;86.20
10231;DHT22;5159;49.432;8.680;2022-07-29T04:33:55;21.20;86.40
10231;DHT22;5159;49.432;8.680;2022-07-29T04:36:22;21.20;86.60
10231;DHT22;5159;49.432;8.680;2022-07-29T04:38:49;21.20;86.50
10231;DHT22;5159;49.432;8.680;2022-07-29T04:41:16;21.20;86.90
10231;DHT22;5159;49.432;8.680;2022-07-29T04:43:43;21.10;86.90
10231;DHT22;5159;49.432;8.680;2022-07-29T04:46:11;21.10;87.20
10231;DHT22;5159;49.432;8.680;2022-07-29T04:48:38;21.10;87.40
10231;DHT22;5159;49.432;8.680;2022-07-29T04:51:05;21.10;87.50
10231;DHT22;5159;49.432;8.680;2022-07-29T04:53:32;21.10;87.60
10231;DHT22;5159;49.432;8.680;2022-07-29T04:55:59;21.10;87.80
10231;DHT22;5159;49.432;8.680;2022-07-29T04:58:26;21.10;87.70
10231;DHT22;5159;49.432;8.680;2022-07-29T05:00:53;21.10;87.30
10231;DHT22;5159;49.432;8.680;2022-07-29T05:03:21;21.00;87.50
10231;DHT22;5159;49.432;8.680;2022-07-29T05:05:48;21.00;87.50
10231;DHT22;5159;49.432;8.680;2022-07-29T05:08:15;21.00;87.00
10231;DHT22;5159;49.432;8.680;2022-07-29T05:10:42;21.00;86.30
10231;DHT22;5159;49.432;8.680;2022-07-29T05:13:09;21.10;86.10
10231;DHT22;5159;49.432;8.680;2022-07-29T05:15:36;21.10;85.60
10231;DHT22;5159;49.432;8.680;2022-07-29T05:18:04;21.20;85.30
10231;DHT22;5159;49.432;8.680;2022-07-29T05:20:32;21.20;85.20
10231;DHT22;5159;49.432;8.680;2022-07-29T05:23:00;21.30;86.60
10231;DHT22;5159;49.432;8.680;2022-07-29T05:25:42;21.30;86.30
10231;DHT22;5159;49.432;8.680;2022-07-29T05:28:10;21.30;84.00
10231;DHT22;5159;49.432;8.680;2022-07-29T05:30:37;21.30;86.00
10231;DHT22;5159;49.432;8.680;2022-07-29T05:33:04;21.30;84.10
10231;DHT22;5159;49.432;8.680;2022-07-29T05:35:33;21.40;83.80
10231;DHT22;5159;49.432;8.680;2022-07-29T05:38:02;21.50;82.90
10231;DHT22;5159;49.432;8.680;2022-07-29T05:40:29;21.60;82.80
10231;DHT22;5159;49.432;8.680;2022-07-29T05:42:58;21.70;81.90
10231;DHT22;5159;49.432;8.680;2022-07-29T05:45:25;21.70;80.50
10231;DHT22;5159;49.432;8.680;2022-07-29T05:47:52;21.80;79.90
10231;DHT22;5159;49.432;8.680;2022-07-29T05:50:19;21.80;79.70
10231;DHT22;5159;49.432;8.680;2022-07-29T05:52:48;21.90;79.00
10231;DHT22;5159;49.432;8.680;2022-07-29T05:55:15;22.00;78.80
10231;DHT22;5159;49.432;8.680;2022-07-29T05:57:42;22.10;78.00
10231;DHT22;5159;49.432;8.680;2022-07-29T06:00:13;22.20;77.60
10231;DHT22;5159;49.432;8.680;2022-07-29T06:02:41;22.30;76.10
10231;DHT22;5159;49.432;8.680;2022-07-29T06:05:08;22.40;74.20
10231;DHT22;5159;49.432;8.680;2022-07-29T06:07:35;22.50;73.00
10231;DHT22;5159;49.432;8.680;2022-07-29T06:10:04;22.60;73.90
10231;DHT22;5159;49.432;8.680;2022-07-29T06:12:31;22.70;71.20
10231;DHT22;5159;49.432;8.680;2022-07-29T06:14:58;22.90;70.00
10231;DHT22;5159;49.432;8.680;2022-07-29T06:17:25;23.00;70.00
10231;DHT22;5159;49.432;8.680;2022-07-29T06:19:52;23.10;69.80
10231;DHT22;5159;49.432;8.680;2022-07-29T06:22:19;23.30;68.10
10231;DHT22;5159;49.432;8.680;2022-07-29T06:24:46;23.40;67.00
10231;DHT22;5159;49.432;8.680;2022-07-29T06:27:14;23.50;67.10
10231;DHT22;5159;49.432;8.680;2022-07-29T06:29:41;23.60;65.10
10231;DHT22;5159;49.432;8.680;2022-07-29T06:32:08;23.70;65.40
10231;DHT22;5159;49.432;8.680;2022-07-29T06:34:35;23.90;64.10
10231;DHT22;5159;49.432;8.680;2022-07-29T06:37:06;24.00;62.90
10231;DHT22;5159;49.432;8.680;2022-07-29T06:39:34;24.10;62.50
10231;DHT22;5159;49.432;8.680;2022-07-29T06:42:02;24.30;62.60
10231;DHT22;5159;49.432;8.680;2022-07-29T06:44:31;24.50;61.10
10231;DHT22;5159;49.432;8.680;2022-07-29T06:46:59;24.60;59.60
10231;DHT22;5159;49.432;8.680;2022-07-29T06:49:26;24.60;60.00
10231;DHT22;5159;49.432;8.680;2022-07-29T06:51:54;24.60;60.20
10231;DHT22;5159;49.432;8.680;2022-07-29T06:54:21;24.50;59.90
10231;DHT22;5159;49.432;8.680;2022-07-29T06:56:48;24.40;60.60
10231;DHT22;5159;49.432;8.680;2022-07-29T06:59:15;24.40;60.00
10231;DHT22;5159;49.432;8.680;2022-07-29T07:01:44;24.40;61.40
10231;DHT22;5159;49.432;8.680;2022-07-29T07:04:11;24.30;60.20
10231;DHT22;5159;49.432;8.680;2022-07-29T07:06:39;24.20;61.90
10231;DHT22;5159;49.432;8.680;2022-07-29T07:09:06;24.20;60.70
10231;DHT22;5159;49.432;8.680;2022-07-29T07:11:33;24.10;61.20
10231;DHT22;5159;49.432;8.680;2022-07-29T07:14:00;24.00;62.40
10231;DHT22;5159;49.432;8.680;2022-07-29T07:16:27;24.00;61.90
10231;DHT22;5159;49.432;8.680;2022-07-29T07:18:56;24.00;62.00
10231;DHT22;5159;49.432;8.680;2022-07-29T07:21:23;24.40;61.50
10231;DHT22;5159;49.432;8.680;2022-07-29T07:23:50;24.60;60.80
10231;DHT22;5159;49.432;8.680;2022-07-29T07:26:17;24.70;60.60
10231;DHT22;5159;49.432;8.680;2022-07-29T07:28:44;25.10;60.10
10231;DHT22;5159;49.432;8.680;2022-07-29T07:31:11;25.20;59.00
10231;DHT22;5159;49.432;8.680;2022-07-29T07:33:38;25.60;57.70
10231;DHT22;5159;49.432;8.680;2022-07-29T07:36:06;25.40;57.70
10231;DHT22;5159;49.432;8.680;2022-07-29T07:38:34;25.00;58.60
10231;DHT22;5159;49.432;8.680;2022-07-29T07:41:01;24.60;64.30
10231;DHT22;5159;49.432;8.680;2022-07-29T07:43:29;24.20;64.80
10231;DHT22;5159;49.432;8.680;2022-07-29T07:45:57;24.00;66.80
10231;DHT22;5159;49.432;8.680;2022-07-29T07:48:24;24.00;67.40
10231;DHT22;5159;49.432;8.680;2022-07-29T07:50:52;24.20;70.60
10231;DHT22;5159;49.432;8.680;2022-07-29T07:53:23;24.10;68.00
10231;DHT22;5159;49.432;8.680;2022-07-29T07:55:56;24.20;69.70
10231;DHT22;5159;49.432;8.680;2022-07-29T07:58:25;24.20;67.50
10231;DHT22;5159;49.432;8.680;2022-07-29T08:00:53;24.10;66.30
10231;DHT22;5159;49.432;8.680;2022-07-29T08:03:20;24.10;66.10
10231;DHT22;5159;49.432;8.680;2022-07-29T08:05:47;24.00;67.30
10231;DHT22;5159;49.432;8.680;2022-07-29T08:08:16;24.10;72.10
10231;DHT22;5159;49.432;8.680;2022-07-29T08:10:44;24.30;70.10
10231;DHT22;5159;49.432;8.680;2022-07-29T08:13:23;24.70;66.60
10231;DHT22;5159;49.432;8.680;2022-07-29T08:15:50;25.10;64.60
10231;DHT22;5159;49.432;8.680;2022-07-29T08:18:23;25.60;61.20
10231;DHT22;5159;49.432;8.680;2022-07-29T08:20:50;25.80;60.00
10231;DHT22;5159;49.432;8.680;2022-07-29T08:23:17;26.30;58.50
10231;DHT22;5159;49.432;8.680;2022-07-29T08:25:46;26.50;58.30
10231;DHT22;5159;49.432;8.680;2022-07-29T08:28:14;27.00;55.10
10231;DHT22;5159;49.432;8.680;2022-07-29T08:30:41;27.10;54.40
10231;DHT22;5159;49.432;8.680;2022-07-29T08:33:08;27.10;55.30
10231;DHT22;5159;49.432;8.680;2022-07-29T08:35:35;27.30;52.60
10231;DHT22;5159;49.432;8.680;2022-07-29T08:38:02;27.00;52.60
10231;DHT22;5159;49.432;8.680;2022-07-29T08:40:30;27.70;50.50
10231;DHT22;5159;49.432;8.680;2022-07-29T08:42:59;27.80;49.00
10231;DHT22;5159;49.432;8.680;2022-07-29T08:45:28;27.70;49.70
10231;DHT22;5159;49.432;8.680;2022-07-29T08:47:56;27.70;50.90
10231;DHT22;5159;49.432;8.680;2022-07-29T08:50:23;27.60;49.90
10231;DHT22;5159;49.432;8.680;2022-07-29T08:52:51;27.50;49.50
10231;DHT22;5159;49.432;8.680;2022-07-29T08:55:18;27.70;50.50
10231;DHT22;5159;49.432;8.680;2022-07-29T08:57:45;27.90;49.60
10231;DHT22;5159;49.432;8.680;2022-07-29T09:00:14;28.80;46.30
10231;DHT22;5159;49.432;8.680;2022-07-29T09:02:45;28.70;46.00
10231;DHT22;5159;49.432;8.680;2022-07-29T09:05:14;29.10;45.10
10231;DHT22;5159;49.432;8.680;2022-07-29T09:07:42;30.00;43.30
10231;DHT22;5159;49.432;8.680;2022-07-29T09:10:10;30.00;40.50
10231;DHT22;5159;49.432;8.680;2022-07-29T09:12:37;30.30;40.10
10231;DHT22;5159;49.432;8.680;2022-07-29T09:15:06;30.50;39.30
10231;DHT22;5159;49.432;8.680;2022-07-29T09:17:41;30.50;38.80
10231;DHT22;5159;49.432;8.680;2022-07-29T09:20:10;30.40;40.80
10231;DHT22;5159;49.432;8.680;2022-07-29T09:22:37;30.40;40.20
10231;DHT22;5159;49.432;8.680;2022-07-29T09:25:05;30.50;39.40
10231;DHT22;5159;49.432;8.680;2022-07-29T09:27:32;30.40;40.40
10231;DHT22;5159;49.432;8.680;2022-07-29T09:30:01;31.00;39.00
10231;DHT22;5159;49.432;8.680;2022-07-29T09:32:29;30.80;36.80
10231;DHT22;5159;49.432;8.680;2022-07-29T09:35:17;30.20;38.30
10231;DHT22;5159;49.432;8.680;2022-07-29T09:37:45;30.20;39.10
10231;DHT22;5159;49.432;8.680;2022-07-29T09:40:13;29.50;39.90
10231;DHT22;5159;49.432;8.680;2022-07-29T09:42:41;29.00;41.00
10231;DHT22;5159;49.432;8.680;2022-07-29T09:45:09;28.90;42.00
10231;DHT22;5159;49.432;8.680;2022-07-29T09:47:45;29.20;41.40
10231;DHT22;5159;49.432;8.680;2022-07-29T09:50:15;29.60;41.80
10231;DHT22;5159;49.432;8.680;2022-07-29T09:52:46;29.70;41.80
10231;DHT22;5159;49.432;8.680;2022-07-29T09:55:13;29.00;41.60
10231;DHT22;5159;49.432;8.680;2022-07-29T09:57:41;29.30;42.40
10231;DHT22;5159;49.432;8.680;2022-07-29T10:00:10;30.10;40.00
10231;DHT22;5159;49.432;8.680;2022-07-29T10:02:39;30.20;39.70
10231;DHT22;5159;49.432;8.680;2022-07-29T10:05:18;30.40;40.00
10231;DHT22;5159;49.432;8.680;2022-07-29T10:07:47;30.40;38.20
10231;DHT22;5159;49.432;8.680;2022-07-29T10:10:22;30.10;40.50
10231;DHT22;5159;49.432;8.680;2022-07-29T10:12:52;30.50;39.60
10231;DHT22;5159;49.432;8.680;2022-07-29T10:15:21;30.90;37.90
10231;DHT22;5159;49.432;8.680;2022-07-29T10:17:49;30.60;37.80
10231;DHT22;5159;49.432;8.680;2022-07-29T10:20:18;30.80;37.40
10231;DHT22;5159;49.432;8.680;2022-07-29T10:22:47;30.60;37.50
10231;DHT22;5159;49.432;8.680;2022-07-29T10:25:15;30.70;37.30
10231;DHT22;5159;49.432;8.680;2022-07-29T10:27:43;31.50;37.00
10231;DHT22;5159;49.432;8.680;2022-07-29T10:30:11;31.20;36.30
10231;DHT22;5159;49.432;8.680;2022-07-29T10:35:54;32.30;33.60
10231;DHT22;5159;49.432;8.680;2022-07-29T10:38:44;33.10;32.30
10231;DHT22;5159;49.432;8.680;2022-07-29T10:44:17;33.50;30.60
10231;DHT22;5159;49.432;8.680;2022-07-29T10:46:46;34.10;29.90
10231;DHT22;5159;49.432;8.680;2022-07-29T10:49:22;34.70;28.40
10231;DHT22;5159;49.432;8.680;2022-07-29T10:52:03;34.60;26.50
10231;DHT22;5159;49.432;8.680;2022-07-29T10:54:42;34.50;26.80
10231;DHT22;5159;49.432;8.680;2022-07-29T10:57:15;34.90;26.90
10231;DHT22;5159;49.432;8.680;2022-07-29T10:59:45;35.30;25.40
10231;DHT22;5159;49.432;8.680;2022-07-29T11:02:41;34.20;26.90
10231;DHT22;5159;49.432;8.680;2022-07-29T11:05:10;34.40;25.50
10231;DHT22;5159;49.432;8.680;2022-07-29T11:07:39;34.10;26.30
10231;DHT22;5159;49.432;8.680;2022-07-29T11:10:25;33.50;27.00
10231;DHT22;5159;49.432;8.680;2022-07-29T11:12:52;33.00;26.70
10231;DHT22;5159;49.432;8.680;2022-07-29T11:15:20;33.50;28.30
10231;DHT22;5159;49.432;8.680;2022-07-29T11:18:07;34.20;26.70
10231;DHT22;5159;49.432;8.680;2022-07-29T11:20:37;35.30;25.80
10231;DHT22;5159;49.432;8.680;2022-07-29T11:23:20;35.50;24.20
10231;DHT22;5159;49.432;8.680;2022-07-29T11:26:17;35.00;23.80
10231;DHT22;5159;49.432;8.680;2022-07-29T11:28:52;34.40;24.50
10231;DHT22;5159;49.432;8.680;2022-07-29T11:31:32;34.70;25.10
10231;DHT22;5159;49.432;8.680;2022-07-29T11:34:17;34.90;23.20
10231;DHT22;5159;49.432;8.680;2022-07-29T11:37:16;34.50;23.10
10231;DHT22;5159;49.432;8.680;2022-07-29T11:39:46;34.60;24.10
10231;DHT22;5159;49.432;8.680;2022-07-29T11:42:41;35.30;23.80
10231;DHT22;5159;49.432;8.680;2022-07-29T11:45:10;35.70;22.50
10231;DHT22;5159;49.432;8.680;2022-07-29T11:47:40;35.90;22.90
10231;DHT22;5159;49.432;8.680;2022-07-29T11:50:09;36.00;22.50
10231;DHT22;5159;49.432;8.680;2022-07-29T11:52:38;35.90;21.50
10231;DHT22;5159;49.432;8.680;2022-07-29T11:55:11;35.70;22.20
10231;DHT22;5159;49.432;8.680;2022-07-29T11:57:46;35.50;23.10
10231;DHT22;5159;49.432;8.680;2022-07-29T12:00:25;35.40;22.70
10231;DHT22;5159;49.432;8.680;2022-07-29T12:02:52;35.50;22.80
10231;DHT22;5159;49.432;8.680;2022-07-29T12:05:20;35.80;22.50
10231;DHT22;5159;49.432;8.680;2022-07-29T12:07:48;35.70;21.70
10231;DHT22;5159;49.432;8.680;2022-07-29T12:10:16;35.00;22.40
10231;DHT22;5159;49.432;8.680;2022-07-29T12:12:51;34.50;22.20
10231;DHT22;5159;49.432;8.680;2022-07-29T12:15:19;34.30;23.40
10231;DHT22;5159;49.432;8.680;2022-07-29T12:17:47;34.60;22.80
10231;DHT22;5159;49.432;8.680;2022-07-29T12:20:23;34.70;21.60
10231;DHT22;5159;49.432;8.680;2022-07-29T12:22:50;34.60;22.30
10231;DHT22;5159;49.432;8.680;2022-07-29T12:25:21;34.20;21.00
10231;DHT22;5159;49.432;8.680;2022-07-29T12:27:58;33.90;23.40
10231;DHT22;5159;49.432;8.680;2022-07-29T12:30:38;34.20;22.80
10231;DHT22;5159;49.432;8.680;2022-07-29T12:33:17;34.50;22.60
10231;DHT22;5159;49.432;8.680;2022-07-29T12:35:47;34.70;22.10
10231;DHT22;5159;49.432;8.680;2022-07-29T12:38:15;34.60;21.00
10231;DHT22;5159;49.432;8.680;2022-07-29T12:40:47;34.20;21.60
10231;DHT22;5159;49.432;8.680;2022-07-29T12:43:17;34.20;21.30
10231;DHT22;5159;49.432;8.680;2022-07-29T12:45:47;34.00;22.30
10231;DHT22;5159;49.432;8.680;2022-07-29T12:48:16;34.00;21.40
10231;DHT22;5159;49.432;8.680;2022-07-29T12:51:02;34.10;21.50
10231;DHT22;5159;49.432;8.680;2022-07-29T12:53:29;33.50;23.00
10231;DHT22;5159;49.432;8.680;2022-07-29T12:55:59;33.90;22.60
10231;DHT22;5159;49.432;8.680;2022-07-29T12:58:33;34.30;21.90
10231;DHT22;5159;49.432;8.680;2022-07-29T13:01:06;34.60;21.30
10231;DHT22;5159;49.432;8.680;2022-07-29T13:03:51;34.60;21.00
10231;DHT22;5159;49.432;8.680;2022-07-29T13:06:32;34.70;21.00
10231;DHT22;5159;49.432;8.680;2022-07-29T13:09:01;34.30;20.70
10231;DHT22;5159;49.432;8.680;2022-07-29T13:11:31;34.10;21.40
10231;DHT22;5159;49.432;8.680;2022-07-29T13:13:58;33.90;20.50
10231;DHT22;5159;49.432;8.680;2022-07-29T13:16:25;33.70;21.60
10231;DHT22;5159;49.432;8.680;2022-07-29T13:19:07;33.40;21.10
10231;DHT22;5159;49.432;8.680;2022-07-29T13:21:35;33.60;21.80
10231;DHT22;5159;49.432;8.680;2022-07-29T13:24:02;33.80;21.40
10231;DHT22;5159;49.432;8.680;2022-07-29T13:26:31;33.90;20.60
10231;DHT22;5159;49.432;8.680;2022-07-29T13:28:59;33.40;20.00
10231;DHT22;5159;49.432;8.680;2022-07-29T13:31:27;33.20;20.10
10231;DHT22;5159;49.432;8.680;2022-07-29T13:33:53;33.00;20.80
10231;DHT22;5159;49.432;8.680;2022-07-29T13:36:21;32.40;21.10
10231;DHT22;5159;49.432;8.680;2022-07-29T13:38:48;31.70;21.30
10231;DHT22;5159;49.432;8.680;2022-07-29T13:41:15;31.50;22.20
10231;DHT22;5159;49.432;8.680;2022-07-29T13:43:44;31.40;22.40
10231;DHT22;5159;49.432;8.680;2022-07-29T13:46:11;30.90;21.90
10231;DHT22;5159;49.432;8.680;2022-07-29T13:48:38;30.70;22.70
10231;DHT22;5159;49.432;8.680;2022-07-29T13:51:05;30.50;22.70
10231;DHT22;5159;49.432;8.680;2022-07-29T13:53:31;30.30;23.20
10231;DHT22;5159;49.432;8.680;2022-07-29T13:55:59;30.30;23.90
10231;DHT22;5159;49.432;8.680;2022-07-29T13:58:26;30.30;24.30
10231;DHT22;5159;49.432;8.680;2022-07-29T14:00:55;30.20;25.10
10231;DHT22;5159;49.432;8.680;2022-07-29T14:03:22;30.10;25.10
10231;DHT22;5159;49.432;8.680;2022-07-29T14:05:50;30.20;24.10
10231;DHT22;5159;49.432;8.680;2022-07-29T14:08:17;30.00;23.70
10231;DHT22;5159;49.432;8.680;2022-07-29T14:10:44;29.90;23.50
10231;DHT22;5159;49.432;8.680;2022-07-29T14:13:11;30.00;24.50
10231;DHT22;5159;49.432;8.680;2022-07-29T14:15:38;30.20;24.50
10231;DHT22;5159;49.432;8.680;2022-07-29T14:18:07;30.20;24.30
10231;DHT22;5159;49.432;8.680;2022-07-29T14:20:34;30.20;24.70
10231;DHT22;5159;49.432;8.680;2022-07-29T14:23:01;30.30;24.10
10231;DHT22;5159;49.432;8.680;2022-07-29T14:25:28;30.30;24.80
10231;DHT22;5159;49.432;8.680;2022-07-29T14:27:55;30.40;24.40
10231;DHT22;5159;49.432;8.680;2022-07-29T14:30:22;30.40;24.00
10231;DHT22;5159;49.432;8.680;2022-07-29T14:32:49;30.40;24.80
10231;DHT22;5159;49.432;8.680;2022-07-29T14:35:17;30.40;25.20
10231;DHT22;5159;49.432;8.680;2022-07-29T14:37:44;30.40;25.20
10231;DHT22;5159;49.432;8.680;2022-07-29T14:40:11;30.20;24.30
10231;DHT22;5159;49.432;8.680;2022-07-29T14:42:38;30.30;24.20
10231;DHT22;5159;49.432;8.680;2022-07-29T14:45:07;30.10;23.40
10231;DHT22;5159;49.432;8.680;2022-07-29T14:47:34;30.10;23.70
10231;DHT22;5159;49.432;8.680;2022-07-29T14:50:01;30.00;23.90
10231;DHT22;5159;49.432;8.680;2022-07-29T14:52:30;29.70;22.80
10231;DHT22;5159;49.432;8.680;2022-07-29T14:54:57;29.80;23.00
10231;DHT22;5159;49.432;8.680;2022-07-29T14:57:24;29.80;23.80
10231;DHT22;5159;49.432;8.680;2022-07-29T14:59:51;29.90;24.20
10231;DHT22;5159;49.432;8.680;2022-07-29T15:02:18;30.00;24.90
10231;DHT22;5159;49.432;8.680;2022-07-29T15:04:45;30.00;23.90
10231;DHT22;5159;49.432;8.680;2022-07-29T15:07:13;29.80;23.70
10231;DHT22;5159;49.432;8.680;2022-07-29T15:09:42;29.90;24.50
10231;DHT22;5159;49.432;8.680;2022-07-29T15:12:11;30.00;24.20
10231;DHT22;5159;49.432;8.680;2022-07-29T15:14:38;30.00;24.50
10231;DHT22;5159;49.432;8.680;2022-07-29T15:17:05;30.00;24.70
10231;DHT22;5159;49.432;8.680;2022-07-29T15:19:32;29.80;24.40
10231;DHT22;5159;49.432;8.680;2022-07-29T15:21:59;29.80;24.80
10231;DHT22;5159;49.432;8.680;2022-07-29T15:27:32;29.80;24.40
10231;DHT22;5159;49.432;8.680;2022-07-29T15:30:00;29.90;24.30
10231;DHT22;5159;49.432;8.680;2022-07-29T15:32:27;29.80;24.10
10231;DHT22;5159;49.432;8.680;2022-07-29T15:34:53;29.80;24.50
10231;DHT22;5159;49.432;8.680;2022-07-29T15:37:20;29.90;24.20
10231;DHT22;5159;49.432;8.680;2022-07-29T15:39:47;30.00;23.70
10231;DHT22;5159;49.432;8.680;2022-07-29T15:42:15;29.90;23.30
10231;DHT22;5159;49.432;8.680;2022-07-29T15:44:46;30.00;24.00
10231;DHT22;5159;49.432;8.680;2022-07-29T15:47:16;29.90;24.10
10231;DHT22;5159;49.432;8.680;2022-07-29T15:49:44;30.00;23.80
10231;DHT22;5159;49.432;8.680;2022-07-29T15:52:12;30.10;23.30
10231;DHT22;5159;49.432;8.680;2022-07-29T15:54:39;30.30;23.10
10231;DHT22;5159;49.432;8.680;2022-07-29T15:57:07;30.30;22.30
10231;DHT22;5159;49.432;8.680;2022-07-29T15:59:34;30.40;22.90
10231;DHT22;5159;49.432;8.680;2022-07-29T16:02:03;30.40;22.50
10231;DHT22;5159;49.432;8.680;2022-07-29T16:04:31;30.50;22.80
10231;DHT22;5159;49.432;8.680;2022-07-29T16:06:58;30.40;22.30
10231;DHT22;5159;49.432;8.680;2022-07-29T16:09:25;30.20;22.10